Terminal Aerodrome Forecast
Issued by NWS

Current Version | Previous Version | Graphics & Text | Print | Product List | Glossary On
Versions: 1 2 3 4 5 6 7 8 9 10 11 12 13 14 15 16 17 18
000
FTUS41 KRNK 261219 AAA
TAFLWB
TAF AMD
KLWB 261219Z 2612/2712 25002KT P6SM BKN035 BKN100
     FM261800 27006KT P6SM VCTS BKN045CB OVC060
     FM270000 00000KT P6SM BKN100
     FM270900 00000KT 1/2SM FG BKN001 BKN050=

USA.gov is the U.S. government's official web portal to all federal, state and local government web resources and services.